Time;durP1;ratioP1;P1;durP2;ratioP2;P2;SDS_P1;SDS_P2;PMS_P1;PMS_P2;Temp;Humidity;BMP_temperature;BMP_pressure;BME280_temperature;BME280_humidity;BME280_pressure;Samples;Min_cycle;Max_cycle;Signal;HPM_P1;HPM_P2
2024/01/10 00:02:10;;;;;;;9.02;3.53;;;;;;;-5.29;100.00;103146.38;6278334;28;20041;-78
2024/01/10 00:05:11;;;;;;;3.35;2.33;;;;;;;-5.23;100.00;103139.84;6278350;28;20137;-78
2024/01/10 00:08:12;;;;;;;4.40;2.83;;;;;;;-5.24;100.00;103134.66;6277554;28;20056;-78
2024/01/10 00:11:14;;;;;;;6.95;2.65;;;;;;;-5.23;100.00;103142.41;6278613;28;20068;-78
2024/01/10 00:14:16;;;;;;;9.93;2.45;;;;;;;-5.23;100.00;103138.97;6278217;28;20053;-78
2024/01/10 00:17:19;;;;;;;5.72;2.42;;;;;;;-5.25;100.00;103140.59;6278025;28;20040;-78
2024/01/10 00:20:20;;;;;;;8.15;2.30;;;;;;;-5.17;100.00;103135.06;6278026;28;20071;-78
2024/01/10 00:23:21;;;;;;;9.70;2.20;;;;;;;-5.17;100.00;103123.91;6274361;28;20057;-78
2024/01/10 00:26:23;;;;;;;9.65;2.72;;;;;;;-5.17;100.00;103124.78;6277505;28;20053;-78
2024/01/10 00:29:24;;;;;;;7.28;3.20;;;;;;;-5.17;100.00;103129.06;6278244;28;20049;-78
2024/01/10 00:32:27;;;;;;;5.60;2.50;;;;;;;-5.16;100.00;103126.56;6277849;28;20056;-78
2024/01/10 00:35:28;;;;;;;10.70;3.10;;;;;;;-5.24;100.00;103121.84;6277233;28;20060;-77
2024/01/10 00:38:29;;;;;;;5.47;2.10;;;;;;;-5.28;100.00;103125.94;6277434;28;20438;-78
2024/01/10 00:41:30;;;;;;;4.97;3.58;;;;;;;-5.24;100.00;103124.41;6277507;28;20045;-78
2024/01/10 00:44:32;;;;;;;7.88;2.53;;;;;;;-5.21;100.00;103122.00;6274569;28;20480;-78
2024/01/10 00:47:34;;;;;;;6.25;2.42;;;;;;;-5.24;100.00;103119.28;6252182;28;20049;-78
2024/01/10 00:50:36;;;;;;;5.05;2.42;;;;;;;-5.22;100.00;103120.25;6252282;28;20052;-79
2024/01/10 00:53:38;;;;;;;6.65;3.15;;;;;;;-5.24;100.00;103120.16;6252601;28;20136;-76
2024/01/10 00:56:39;;;;;;;6.05;2.70;;;;;;;-5.29;100.00;103124.19;6252454;28;20049;-78
2024/01/10 00:59:41;;;;;;;8.45;3.25;;;;;;;-5.25;100.00;103125.22;6252829;28;20050;-79
2024/01/10 01:02:44;;;;;;;8.05;2.88;;;;;;;-5.26;100.00;103115.78;6251765;28;20045;-79
2024/01/10 01:05:45;;;;;;;4.82;3.10;;;;;;;-5.34;100.00;103111.94;6252116;28;20053;-78
2024/01/10 01:08:46;;;;;;;5.28;2.92;;;;;;;-5.40;100.00;103109.97;6251922;28;20054;-79
2024/01/10 01:11:48;;;;;;;6.57;2.85;;;;;;;-5.40;100.00;103121.09;6252287;28;20457;-79
2024/01/10 01:14:49;;;;;;;5.97;2.65;;;;;;;-5.37;100.00;103112.66;6252039;28;20046;-79
2024/01/10 01:17:52;;;;;;;5.68;3.10;;;;;;;-5.34;100.00;103111.94;6251848;28;20072;-78
2024/01/10 01:20:53;;;;;;;7.25;2.72;;;;;;;-5.30;100.00;103103.63;6251828;28;20042;-78
2024/01/10 01:23:55;;;;;;;6.28;2.65;;;;;;;-5.31;100.00;103109.53;6251566;28;20072;-78
2024/01/10 01:26:56;;;;;;;3.72;2.20;;;;;;;-5.39;100.00;103104.91;6251428;28;20049;-78
2024/01/10 01:29:58;;;;;;;4.05;2.25;;;;;;;-5.36;100.00;103105.06;6252081;28;20049;-78
2024/01/10 01:33:02;;;;;;;7.82;2.42;;;;;;;-5.37;100.00;103110.09;6251775;28;20569;-77
2024/01/10 01:36:04;;;;;;;9.38;2.78;;;;;;;-5.42;100.00;103101.31;6251164;28;20077;-78
2024/01/10 01:39:05;;;;;;;6.10;2.88;;;;;;;-5.42;100.00;103099.63;6251765;28;20061;-77
2024/01/10 01:42:07;;;;;;;3.63;2.53;;;;;;;-5.47;100.00;103095.97;6251051;28;20057;-79
2024/01/10 01:45:09;;;;;;;6.95;2.47;;;;;;;-5.46;100.00;103095.16;6251062;28;20045;-78
2024/01/10 01:48:12;;;;;;;6.88;3.50;;;;;;;-5.43;100.00;103104.69;6251462;28;20050;-79
2024/01/10 01:51:15;;;;;;;3.70;2.47;;;;;;;-5.40;100.00;103094.59;6251396;28;20057;-78
2024/01/10 01:54:16;;;;;;;5.72;2.85;;;;;;;-5.39;100.00;103098.91;6251115;28;20061;-78
2024/01/10 01:57:18;;;;;;;4.10;2.28;;;;;;;-5.41;100.00;103091.13;6250982;28;20071;-79
2024/01/10 02:00:19;;;;;;;7.35;2.65;;;;;;;-5.41;100.00;103095.38;6250491;28;20053;-78
2024/01/10 02:03:22;;;;;;;10.68;2.63;;;;;;;-5.44;100.00;103096.13;6250837;28;20042;-79
2024/01/10 02:06:23;;;;;;;6.45;2.88;;;;;;;-5.49;100.00;103096.69;6250366;28;20350;-78
2024/01/10 02:09:25;;;;;;;9.57;3.20;;;;;;;-5.50;100.00;103100.03;6250843;28;20052;-79
2024/01/10 02:12:26;;;;;;;7.50;3.33;;;;;;;-5.54;100.00;103108.38;6250761;28;20052;-80
2024/01/10 02:15:28;;;;;;;4.40;2.90;;;;;;;-5.49;100.00;103109.50;6250126;28;20061;-80
2024/01/10 02:18:31;;;;;;;6.30;3.17;;;;;;;-5.48;100.00;103104.44;6250701;28;20048;-79
2024/01/10 02:21:32;;;;;;;4.07;2.25;;;;;;;-5.51;100.00;103104.28;6266115;28;20134;-79
2024/01/10 02:24:33;;;;;;;8.35;2.75;;;;;;;-5.52;100.00;103106.78;6271854;28;20040;-79
2024/01/10 02:27:37;;;;;;;4.65;2.40;;;;;;;-5.61;100.00;103109.75;6266735;28;20430;-79
2024/01/10 02:30:38;;;;;;;6.68;2.75;;;;;;;-5.57;100.00;103100.56;6275446;28;20151;-79
2024/01/10 02:33:40;;;;;;;7.03;2.90;;;;;;;-5.60;100.00;103096.13;6270411;28;20052;-79
2024/01/10 02:36:41;;;;;;;3.80;3.35;;;;;;;-5.64;100.00;103109.59;6267524;28;20071;-78
2024/01/10 02:39:42;;;;;;;6.07;2.92;;;;;;;-5.60;100.00;103103.81;6270620;28;20048;-79
2024/01/10 02:42:45;;;;;;;3.97;2.25;;;;;;;-5.67;100.00;103102.66;6274478;28;20045;-79
2024/01/10 02:45:46;;;;;;;5.20;2.83;;;;;;;-5.71;100.00;103100.72;6274823;28;20072;-78
2024/01/10 02:48:48;;;;;;;7.38;2.70;;;;;;;-5.63;100.00;103117.38;6275027;28;20430;-78
2024/01/10 02:51:49;;;;;;;10.60;4.25;;;;;;;-5.65;100.00;103106.16;6276836;22;20041;-71
2024/01/10 02:54:50;;;;;;;7.93;2.90;;;;;;;-5.69;100.00;103100.78;6249344;28;20053;-70
2024/01/10 02:57:53;;;;;;;5.03;2.55;;;;;;;-5.79;100.00;103102.00;6225675;28;20053;-71
2024/01/10 03:00:54;;;;;;;6.45;2.88;;;;;;;-5.89;100.00;103087.84;6240858;28;20053;-71
2024/01/10 03:03:56;;;;;;;6.75;2.53;;;;;;;-5.85;100.00;103095.72;6250157;28;20461;-71
2024/01/10 03:06:57;;;;;;;14.27;4.20;;;;;;;-5.71;100.00;103089.59;6249621;28;20049;-71
2024/01/10 03:09:58;;;;;;;9.23;3.08;;;;;;;-5.69;100.00;103088.88;6250161;28;20046;-71
2024/01/10 03:13:01;;;;;;;16.45;2.90;;;;;;;-5.73;100.00;103081.81;6258335;28;20040;-71
2024/01/10 03:16:02;;;;;;;7.40;2.75;;;;;;;-5.67;100.00;103084.72;6268675;28;20457;-71
2024/01/10 03:19:04;;;;;;;10.73;3.65;;;;;;;-5.61;100.00;103072.22;6275596;28;20041;-70
2024/01/10 03:22:06;;;;;;;5.20;3.78;;;;;;;-5.52;100.00;103074.34;6276637;28;20045;-71
2024/01/10 03:25:07;;;;;;;10.40;3.53;;;;;;;-5.54;100.00;103064.81;6279083;28;20460;-71
2024/01/10 03:28:10;;;;;;;16.48;3.00;;;;;;;-5.68;100.00;103059.91;6250448;28;20049;-71
2024/01/10 03:31:12;;;;;;;7.50;3.03;;;;;;;-5.85;100.00;103055.63;6251511;28;20450;-71
2024/01/10 03:34:13;;;;;;;6.13;3.03;;;;;;;-5.85;100.00;103045.38;6242985;28;20133;-71
2024/01/10 03:37:15;;;;;;;6.78;3.33;;;;;;;-5.75;100.00;103044.16;6263216;28;20426;-71
2024/01/10 03:40:16;;;;;;;9.15;3.53;;;;;;;-5.67;100.00;103048.00;6257219;28;20065;-71
2024/01/10 03:43:19;;;;;;;5.93;2.97;;;;;;;-5.63;100.00;103044.78;6251808;28;20049;-71
2024/01/10 03:46:20;;;;;;;5.75;2.95;;;;;;;-5.58;100.00;103043.31;6252905;28;20324;-71
2024/01/10 03:49:22;;;;;;;8.73;3.78;;;;;;;-5.58;100.00;103040.75;6254146;28;20053;-71
2024/01/10 03:52:23;;;;;;;14.02;4.22;;;;;;;-5.60;100.00;103039.78;6253096;28;20323;-70
2024/01/10 03:55:24;;;;;;;5.72;2.75;;;;;;;-5.58;100.00;103037.31;6253801;28;20050;-71
2024/01/10 03:58:27;;;;;;;10.20;3.55;;;;;;;-5.57;100.00;103044.19;6254234;28;20057;-71
2024/01/10 04:01:28;;;;;;;6.35;3.88;;;;;;;-5.55;100.00;103048.56;6256549;28;20362;-71
2024/01/10 04:04:30;;;;;;;7.10;2.83;;;;;;;-5.65;100.00;103044.69;6278471;28;20053;-71
2024/01/10 04:07:31;;;;;;;7.82;3.60;;;;;;;-5.70;100.00;103041.03;6277716;28;20452;-71
2024/01/10 04:10:32;;;;;;;7.30;3.47;;;;;;;-5.64;100.00;103035.31;6278581;28;20044;-71
2024/01/10 04:13:36;;;;;;;10.98;3.13;;;;;;;-5.73;100.00;103043.41;6272444;28;20046;-71
2024/01/10 04:16:37;;;;;;;7.43;2.50;;;;;;;-5.76;100.00;103033.03;6253085;28;20053;-71
2024/01/10 04:19:38;;;;;;;4.82;2.67;;;;;;;-5.78;100.00;103033.75;6265503;28;20437;-71
2024/01/10 04:22:40;;;;;;;9.20;4.35;;;;;;;-5.81;100.00;103025.91;6275932;28;20071;-71
2024/01/10 04:25:41;;;;;;;8.18;3.13;;;;;;;-5.78;100.00;103020.94;6273550;28;20037;-70
2024/01/10 04:28:44;;;;;;;7.05;2.85;;;;;;;-5.76;100.00;103024.47;6278070;28;20053;-71
2024/01/10 04:31:45;;;;;;;4.95;3.03;;;;;;;-5.75;100.00;103027.09;6278045;28;20048;-71
2024/01/10 04:34:47;;;;;;;5.78;3.08;;;;;;;-5.72;100.00;103018.69;6277676;28;20055;-70
2024/01/10 04:37:48;;;;;;;8.70;3.60;;;;;;;-5.71;100.00;103021.34;6273536;28;20429;-71
2024/01/10 04:40:49;;;;;;;4.10;2.17;;;;;;;-5.70;100.00;103023.09;6277678;28;20049;-71
2024/01/10 04:43:52;;;;;;;6.25;3.08;;;;;;;-5.72;100.00;103021.25;6277423;28;20052;-72
2024/01/10 04:46:54;;;;;;;8.43;3.05;;;;;;;-5.80;100.00;103020.88;6277344;28;20045;-71
2024/01/10 04:49:55;;;;;;;6.75;2.55;;;;;;;-5.76;100.00;103021.91;6277534;28;20053;-71
2024/01/10 04:52:56;;;;;;;5.32;2.92;;;;;;;-5.77;100.00;103025.25;6277265;28;20048;-71
2024/01/10 04:55:58;;;;;;;9.98;3.05;;;;;;;-5.77;100.00;103022.69;6276921;28;20045;-70
2024/01/10 04:59:00;;;;;;;6.95;3.33;;;;;;;-5.81;100.00;103021.69;6277615;28;20052;-70
2024/01/10 05:02:02;;;;;;;6.82;2.88;;;;;;;-5.84;100.00;103015.53;6276925;28;20441;-70
2024/01/10 05:05:04;;;;;;;6.78;2.97;;;;;;;-5.89;100.00;103012.75;6282639;28;20082;-70
2024/01/10 05:08:07;;;;;;;3.20;1.92;;;;;;;-5.99;100.00;103006.31;6274915;28;20457;-72
2024/01/10 05:11:08;;;;;;;9.15;3.42;;;;;;;-6.07;100.00;103010.16;6276942;28;20468;-71
2024/01/10 05:14:11;;;;;;;8.27;3.45;;;;;;;-6.05;100.00;103016.22;6276988;28;20537;-71
2024/01/10 05:17:12;;;;;;;7.93;3.13;;;;;;;-5.95;100.00;103013.34;6276747;28;20069;-71
2024/01/10 05:20:14;;;;;;;9.90;2.83;;;;;;;-5.96;100.00;103020.94;6276970;28;20088;-71
2024/01/10 05:23:15;;;;;;;7.90;2.65;;;;;;;-6.04;100.00;103019.66;6276310;28;20136;-71
2024/01/10 05:26:17;;;;;;;11.65;3.15;;;;;;;-6.06;100.00;103018.72;6276504;28;20057;-71
2024/01/10 05:29:22;;;;;;;3.55;2.15;;;;;;;-6.14;100.00;103023.44;6276588;28;20048;-72
2024/01/10 05:32:23;;;;;;;10.40;3.97;;;;;;;-6.18;100.00;103021.50;6276224;28;20438;-71
2024/01/10 05:35:25;;;;;;;7.70;3.42;;;;;;;-6.30;100.00;103016.66;6275751;28;20349;-71
2024/01/10 05:38:27;;;;;;;6.35;2.80;;;;;;;-6.25;100.00;103022.88;6276249;28;20461;-71
2024/01/10 05:41:29;;;;;;;11.27;2.25;;;;;;;-6.28;100.00;103024.41;6276324;28;20080;-71
2024/01/10 05:44:32;;;;;;;6.07;3.03;;;;;;;-6.21;100.00;103021.38;6262175;28;20323;-72
2024/01/10 05:47:33;;;;;;;12.30;3.13;;;;;;;-6.15;100.00;103024.22;6251012;28;20473;-71
2024/01/10 05:50:34;;;;;;;5.47;2.95;;;;;;;-6.08;100.00;103023.75;6251271;28;20060;-71
2024/01/10 05:53:36;;;;;;;8.77;4.53;;;;;;;-6.24;100.00;103029.75;6251380;28;20041;-71
2024/01/10 05:56:38;;;;;;;7.18;3.47;;;;;;;-6.25;100.00;103030.56;6250812;28;20366;-71
2024/01/10 05:59:41;;;;;;;19.98;6.22;;;;;;;-6.19;100.00;103033.44;6263414;28;20356;-71
2024/01/10 06:02:43;;;;;;;9.90;4.40;;;;;;;-6.11;100.00;103030.41;6275432;28;20057;-71
2024/01/10 06:05:44;;;;;;;6.10;3.30;;;;;;;-6.21;100.00;103032.47;6275649;28;20055;-71
2024/01/10 06:08:45;;;;;;;12.55;4.70;;;;;;;-6.16;100.00;103036.16;6275629;28;20055;-71
2024/01/10 06:11:47;;;;;;;8.57;3.88;;;;;;;-6.27;100.00;103021.03;6275838;28;20045;-72
2024/01/10 06:14:50;;;;;;;7.00;2.85;;;;;;;-6.31;100.00;103021.66;6275383;28;20060;-72
2024/01/10 06:17:51;;;;;;;5.60;3.15;;;;;;;-6.32;100.00;103030.16;6271177;28;20046;-70
2024/01/10 06:20:52;;;;;;;9.05;4.07;;;;;;;-6.24;100.00;103026.31;6273008;28;20044;-71
2024/01/10 06:23:54;;;;;;;11.85;3.15;;;;;;;-6.26;100.00;103021.13;6270988;28;20052;-71
2024/01/10 06:26:55;;;;;;;7.35;3.05;;;;;;;-6.32;100.00;103025.91;6274706;28;20449;-70
2024/01/10 06:29:58;;;;;;;8.30;3.90;;;;;;;-6.34;100.00;103022.41;6275285;28;20056;-71
2024/01/10 06:32:59;;;;;;;5.15;3.28;;;;;;;-6.28;100.00;103027.81;6262595;28;20125;-70
2024/01/10 06:36:01;;;;;;;10.18;4.03;;;;;;;-6.20;100.00;103026.56;6265090;28;20063;-70
2024/01/10 06:39:02;;;;;;;9.50;3.75;;;;;;;-6.26;100.00;103026.25;6275311;28;20496;-71
2024/01/10 06:42:05;;;;;;;7.72;2.75;;;;;;;-6.21;100.00;103017.13;6274765;28;20053;-71
2024/01/10 06:45:11;;;;;;;11.75;3.00;;;;;;;-6.09;100.00;103026.22;6275459;28;20567;-70
2024/01/10 06:48:13;;;;;;;10.90;3.35;;;;;;;-6.04;100.00;103018.00;6264404;28;20056;-70
2024/01/10 06:51:15;;;;;;;9.32;3.10;;;;;;;-6.08;100.00;103018.66;6244949;28;20133;-70
2024/01/10 06:54:18;;;;;;;8.80;3.00;;;;;;;-6.24;100.00;103009.28;6246502;28;20056;-71
2024/01/10 06:57:19;;;;;;;8.05;3.38;;;;;;;-6.30;100.00;103003.88;6245115;28;20049;-70
2024/01/10 07:00:23;;;;;;;8.05;4.13;;;;;;;-6.41;100.00;103004.97;6248960;28;20072;-71
2024/01/10 07:03:24;;;;;;;6.53;3.28;;;;;;;-6.31;100.00;103014.91;6244919;28;20117;-72
2024/01/10 07:06:26;;;;;;;9.88;3.92;;;;;;;-6.23;100.00;103008.47;6243447;28;20049;-72
2024/01/10 07:09:27;;;;;;;10.88;4.50;;;;;;;-6.31;100.00;103009.78;6254036;28;20065;-72
2024/01/10 07:12:28;;;;;;;5.57;3.00;;;;;;;-6.38;100.00;103016.25;6250293;28;20052;-72
2024/01/10 07:15:31;;;;;;;12.57;3.75;;;;;;;-6.28;100.00;103019.28;6246124;28;20431;-72
2024/01/10 07:18:32;;;;;;;7.65;3.45;;;;;;;-6.26;100.00;103023.69;6241541;28;20053;-72
2024/01/10 07:21:34;;;;;;;8.55;3.58;;;;;;;-6.20;100.00;103023.13;6238781;28;20357;-72
2024/01/10 07:24:35;;;;;;;11.82;4.20;;;;;;;-6.25;100.00;103027.13;6245939;28;20442;-72
2024/01/10 07:27:37;;;;;;;7.43;3.03;;;;;;;-6.32;100.00;103027.59;6243540;28;20053;-73
2024/01/10 07:30:40;;;;;;;9.35;3.55;;;;;;;-6.36;100.00;103036.78;6244408;28;20077;-70
2024/01/10 07:33:41;;;;;;;7.75;3.22;;;;;;;-6.38;100.00;103038.38;6246002;28;20045;-72
2024/01/10 07:36:43;;;;;;;7.57;3.47;;;;;;;-6.34;100.00;103042.88;6241166;28;20057;-73
2024/01/10 07:39:44;;;;;;;15.15;3.30;;;;;;;-6.29;100.00;103040.56;6246167;28;20045;-72
2024/01/10 07:42:46;;;;;;;5.15;2.55;;;;;;;-6.35;100.00;103040.25;6250443;28;20353;-72
2024/01/10 07:45:48;;;;;;;9.60;3.67;;;;;;;-6.45;100.00;103049.06;6251431;28;20369;-73
2024/01/10 07:48:50;;;;;;;10.70;2.70;;;;;;;-6.43;100.00;103048.38;6265768;28;20056;-72
2024/01/10 07:51:51;;;;;;;7.03;3.53;;;;;;;-6.42;100.00;103044.13;6283004;28;20048;-73
2024/01/10 07:54:53;;;;;;;7.90;4.65;;;;;;;-6.40;100.00;103042.56;6264315;28;20049;-73
2024/01/10 07:57:54;;;;;;;7.45;3.60;;;;;;;-6.40;100.00;103047.66;6281107;28;20052;-73
2024/01/10 08:00:57;;;;;;;13.20;5.65;;;;;;;-6.42;100.00;103047.56;6278940;28;20045;-73
2024/01/10 08:03:58;;;;;;;12.23;3.60;;;;;;;-6.55;100.00;103034.94;6279144;28;20049;-73
2024/01/10 08:07:00;;;;;;;6.88;3.95;;;;;;;-6.44;100.00;103038.06;6276082;28;20064;-72
2024/01/10 08:10:02;;;;;;;10.23;4.45;;;;;;;-6.31;100.00;103039.56;6276872;28;20051;-71
2024/01/10 08:13:04;;;;;;;8.23;4.28;;;;;;;-6.41;100.00;103038.22;6271137;28;20056;-71
2024/01/10 08:16:08;;;;;;;13.93;4.78;;;;;;;-6.26;100.00;103039.03;6278356;28;20064;-72
2024/01/10 08:19:10;;;;;;;21.08;5.75;;;;;;;-6.11;100.00;103038.06;6273991;28;20139;-73
2024/01/10 08:22:13;;;;;;;15.13;4.32;;;;;;;-6.07;100.00;103037.44;6265189;28;20206;-72
2024/01/10 08:25:15;;;;;;;9.15;4.03;;;;;;;-6.16;100.00;103040.41;6268227;28;20045;-71
2024/01/10 08:28:17;;;;;;;7.80;3.83;;;;;;;-6.13;100.00;103041.44;6277013;28;20079;-72
2024/01/10 08:31:20;;;;;;;12.55;5.28;;;;;;;-6.02;100.00;103044.53;6255326;28;20472;-72
2024/01/10 08:34:21;;;;;;;11.38;5.05;;;;;;;-5.95;100.00;103044.06;6253779;28;20056;-73
2024/01/10 08:37:22;;;;;;;8.93;3.78;;;;;;;-5.84;100.00;103047.13;6253421;28;20052;-72
2024/01/10 08:40:25;;;;;;;21.85;6.93;;;;;;;-5.80;100.00;103049.03;6253527;28;20041;-72
2024/01/10 08:43:26;;;;;;;20.92;6.35;;;;;;;-5.82;100.00;103054.88;6243901;28;20389;-73
2024/01/10 08:46:29;;;;;;;11.65;5.68;;;;;;;-5.86;100.00;103051.28;6242016;28;20049;-74
2024/01/10 08:49:30;;;;;;;13.10;5.30;;;;;;;-5.83;100.00;103059.13;6242541;28;20042;-72
2024/01/10 08:52:32;;;;;;;11.77;4.43;;;;;;;-5.73;100.00;103052.78;6281589;22;20352;-79
2024/01/10 08:55:33;;;;;;;15.55;5.82;;;;;;;-5.66;100.00;103042.94;6266379;28;20046;-80
2024/01/10 08:58:35;;;;;;;9.13;4.10;;;;;;;-5.61;100.00;103048.28;6265006;28;20046;-78
2024/01/10 09:01:38;;;;;;;12.15;4.53;;;;;;;-5.58;100.00;103055.25;6265154;28;20055;-80
2024/01/10 09:04:40;;;;;;;11.63;5.70;;;;;;;-5.55;100.00;103056.25;6264312;28;20445;-80
2024/01/10 09:07:42;;;;;;;10.35;4.38;;;;;;;-5.57;100.00;103054.44;6258749;28;20104;-79
2024/01/10 09:10:43;;;;;;;10.43;4.63;;;;;;;-5.55;100.00;103050.25;6265859;28;20124;-79
2024/01/10 09:13:44;;;;;;;16.23;5.28;;;;;;;-5.52;100.00;103050.44;6266637;28;20041;-78
2024/01/10 09:16:47;;;;;;;14.30;5.72;;;;;;;-5.53;100.00;103047.00;6264392;28;20048;-79
2024/01/10 09:19:48;;;;;;;12.77;4.60;;;;;;;-5.45;100.00;103043.13;6262913;28;20045;-79
2024/01/10 09:22:50;;;;;;;14.07;5.20;;;;;;;-5.30;100.00;103042.13;6264841;28;20052;-80
2024/01/10 09:25:52;;;;;;;12.18;5.28;;;;;;;-5.26;100.00;103039.78;6262412;28;20056;-80
2024/01/10 09:28:54;;;;;;;19.60;6.07;;;;;;;-5.19;100.00;103040.94;6262127;28;20091;-80
2024/01/10 09:31:56;;;;;;;16.05;6.63;;;;;;;-5.19;100.00;103043.50;6251822;28;20057;-80
2024/01/10 09:34:58;;;;;;;21.15;7.78;;;;;;;-5.06;100.00;103038.16;6251499;28;20053;-78
2024/01/10 09:38:00;;;;;;;16.45;6.05;;;;;;;-5.07;100.00;103038.97;6251379;28;20060;-78
2024/01/10 09:41:03;;;;;;;12.45;5.15;;;;;;;-5.10;100.00;103032.00;6251590;28;20053;-78
2024/01/10 09:44:05;;;;;;;19.55;4.88;;;;;;;-5.04;100.00;103040.78;6251322;28;20037;-79
2024/01/10 09:47:09;;;;;;;21.80;6.00;;;;;;;-4.97;100.00;103025.78;6251266;28;20052;-78
2024/01/10 09:50:11;;;;;;;26.10;7.65;;;;;;;-4.86;100.00;103024.59;6251343;28;20060;-78
2024/01/10 09:53:21;;;;;;;16.50;5.88;;;;;;;-4.85;100.00;103010.97;6250820;28;20377;-78
2024/01/10 09:56:22;;;;;;;15.73;6.32;;;;;;;-4.79;100.00;103014.63;6255508;28;20053;-78
2024/01/10 09:59:25;;;;;;;14.02;6.03;;;;;;;-4.76;100.00;103010.53;6262415;28;20041;-78
2024/01/10 10:02:28;;;;;;;15.63;6.97;;;;;;;-4.79;100.00;103010.38;6264290;28;20365;-79
2024/01/10 10:05:30;;;;;;;17.17;5.38;;;;;;;-4.71;100.00;103001.34;6265981;28;20041;-79
2024/01/10 10:08:31;;;;;;;15.05;5.43;;;;;;;-4.67;100.00;103004.94;6273621;28;20048;-78
2024/01/10 10:11:33;;;;;;;17.02;6.22;;;;;;;-4.59;100.00;102995.88;6272411;28;20052;-78
2024/01/10 10:14:34;;;;;;;17.05;6.20;;;;;;;-4.49;100.00;102995.50;6262953;28;20323;-78
2024/01/10 10:17:37;;;;;;;18.23;5.80;;;;;;;-4.46;100.00;103007.56;6265394;28;20049;-78
2024/01/10 10:20:38;;;;;;;19.35;6.38;;;;;;;-4.42;100.00;103001.75;6264113;28;20049;-79
2024/01/10 10:23:41;;;;;;;28.65;6.10;;;;;;;-4.43;100.00;102994.88;6250381;28;20049;-78
2024/01/10 10:26:42;;;;;;;16.73;6.30;;;;;;;-4.32;100.00;102995.34;6249929;28;20361;-78
2024/01/10 10:29:44;;;;;;;16.35;5.53;;;;;;;-4.24;100.00;103001.69;6258399;28;20048;-78
2024/01/10 10:32:46;;;;;;;21.58;6.47;;;;;;;-4.08;100.00;103004.13;6261309;28;20044;-77
2024/01/10 10:35:50;;;;;;;21.95;6.28;;;;;;;-4.06;100.00;103001.63;6273119;28;20045;-77
2024/01/10 10:38:51;;;;;;;13.98;4.90;;;;;;;-4.00;100.00;102997.59;6266070;28;20053;-77
2024/01/10 10:41:54;;;;;;;15.02;5.57;;;;;;;-3.96;100.00;102993.47;6271608;28;20056;-78
2024/01/10 10:45:03;;;;;;;15.45;6.68;;;;;;;-3.83;99.50;102994.06;6260189;28;20041;-77
2024/01/10 10:48:10;;;;;;;18.98;7.40;;;;;;;-3.78;99.56;102989.13;6251302;28;20574;-78
2024/01/10 10:51:16;;;;;;;19.30;6.30;;;;;;;-3.77;96.96;102990.00;6250203;28;20077;-78
2024/01/10 10:54:19;;;;;;;15.60;7.32;;;;;;;-3.72;97.18;102980.81;6249996;28;20350;-78
2024/01/10 10:57:22;;;;;;;15.55;6.50;;;;;;;-3.62;99.31;102978.66;6250073;28;20072;-78
2024/01/10 11:00:27;;;;;;;18.20;6.35;;;;;;;-3.63;97.78;102970.91;6250288;28;20050;-78
2024/01/10 11:03:31;;;;;;;15.05;6.60;;;;;;;-3.58;98.93;102967.72;6259722;28;20427;-78
2024/01/10 11:06:34;;;;;;;14.85;5.75;;;;;;;-3.46;98.38;102958.72;6274222;28;20049;-78
2024/01/10 11:09:37;;;;;;;16.52;7.25;;;;;;;-3.40;98.28;102956.41;6275032;28;20087;-78
2024/01/10 11:13:09;;;;;;;12.38;5.35;;;;;;;-3.34;96.53;102956.66;6274472;28;20057;-77
2024/01/10 11:16:41;;;;;;;13.20;5.18;;;;;;;-3.27;95.55;102955.19;6274725;28;20060;-76
2024/01/10 11:20:22;;;;;;;13.10;5.13;;;;;;;-3.19;94.47;102962.38;6257075;28;20051;-77
2024/01/10 11:23:39;;;;;;;19.98;6.35;;;;;;;-3.21;92.26;102963.16;6224950;28;20061;-77
2024/01/10 11:26:41;;;;;;;17.63;5.93;;;;;;;-3.13;91.40;102957.50;6225443;28;20056;-78
2024/01/10 11:29:46;;;;;;;19.60;5.55;;;;;;;-3.07;92.32;102952.56;6225441;28;20050;-78
2024/01/10 11:32:48;;;;;;;15.02;6.18;;;;;;;-2.98;89.01;102951.16;6242027;28;20080;-78
2024/01/10 11:36:25;;;;;;;12.50;6.22;;;;;;;-2.89;89.76;102943.78;6253942;28;20046;-77
2024/01/10 11:39:26;;;;;;;12.55;5.50;;;;;;;-2.85;87.60;102935.38;6178918;28;20359;-77
2024/01/10 11:42:42;;;;;;;16.55;4.72;;;;;;;-2.76;88.18;102942.56;6178650;28;20141;-78
2024/01/10 11:45:53;;;;;;;16.38;5.53;;;;;;;-2.71;88.39;102947.06;6274789;28;20045;-77
2024/01/10 11:48:54;;;;;;;14.88;4.75;;;;;;;-2.74;86.26;102944.34;6257489;28;20053;-78
2024/01/10 11:51:59;;;;;;;12.18;5.05;;;;;;;-2.73;87.41;102940.94;6253427;28;20049;-77
2024/01/10 11:55:01;;;;;;;28.88;7.82;;;;;;;-2.68;88.14;102939.44;6262541;28;20044;-77
2024/01/10 11:58:10;;;;;;;22.92;8.40;;;;;;;-2.71;86.98;102941.91;6263685;28;20335;-77
2024/01/10 12:01:11;;;;;;;12.43;4.60;;;;;;;-2.64;86.99;102935.25;6253924;28;20049;-78
2024/01/10 12:04:13;;;;;;;14.68;4.82;;;;;;;-2.56;87.41;102934.72;6269313;28;20057;-76
2024/01/10 12:07:18;;;;;;;16.23;4.85;;;;;;;-2.42;85.84;102939.50;6278166;28;20053;-76
2024/01/10 12:10:19;;;;;;;14.63;5.55;;;;;;;-2.31;84.46;102935.59;6278559;28;20361;-76
2024/01/10 12:13:21;;;;;;;11.00;4.85;;;;;;;-2.10;83.15;102933.75;6278233;28;20072;-78
2024/01/10 12:16:24;;;;;;;11.82;4.95;;;;;;;-1.97;83.34;102926.44;6278257;28;20049;-79
2024/01/10 12:19:25;;;;;;;12.38;4.68;;;;;;;-1.93;80.97;102929.16;6278512;28;20076;-78
2024/01/10 12:22:28;;;;;;;17.45;5.35;;;;;;;-1.71;81.09;102925.59;6269385;28;20053;-77
2024/01/10 12:25:29;;;;;;;14.13;4.78;;;;;;;-1.71;79.95;102930.75;6262508;28;20052;-78
2024/01/10 12:28:30;;;;;;;16.52;5.15;;;;;;;-1.57;80.98;102932.06;6271954;28;20481;-78
2024/01/10 12:31:32;;;;;;;12.20;4.93;;;;;;;-1.68;80.59;102930.88;6272869;28;20051;-80
2024/01/10 12:34:33;;;;;;;22.15;5.43;;;;;;;-1.54;79.42;102929.59;6252986;28;20056;-80
2024/01/10 12:37:36;;;;;;;9.23;4.13;;;;;;;-1.42;80.40;102930.78;6252205;28;20056;-80
2024/01/10 12:40:38;;;;;;;15.13;5.07;;;;;;;-1.53;79.53;102933.06;6252561;28;20357;-79
2024/01/10 12:43:40;;;;;;;11.52;4.72;;;;;;;-1.57;80.15;102924.34;6255624;28;20460;-80
2024/01/10 12:46:52;;;;;;;11.60;4.97;;;;;;;-1.66;78.44;102921.47;6276829;28;20048;-79
2024/01/10 12:49:54;;;;;;;16.67;4.80;;;;;;;-1.83;81.61;102926.06;6277957;28;20063;-79
2024/01/10 12:52:57;;;;;;;18.10;5.38;;;;;;;-1.76;81.20;102923.72;6276958;28;20103;-79
2024/01/10 12:55:59;;;;;;;16.27;6.13;;;;;;;-1.89;82.62;102925.00;6277154;28;20080;-78
2024/01/10 12:59:00;;;;;;;18.90;6.93;;;;;;;-2.05;84.50;102919.31;6263163;28;20065;-78
2024/01/10 13:02:02;;;;;;;17.35;4.75;;;;;;;-2.06;83.07;102922.72;6252212;28;20049;-79
2024/01/10 13:05:04;;;;;;;11.13;5.45;;;;;;;-2.01;85.77;102925.47;6249444;28;20042;-79
2024/01/10 13:08:07;;;;;;;14.20;6.35;;;;;;;-2.05;84.86;102916.75;6265347;28;20045;-80
2024/01/10 13:11:09;;;;;;;16.33;6.60;;;;;;;-2.07;83.90;102910.69;6264649;28;20045;-79
2024/01/10 13:14:10;;;;;;;14.40;4.85;;;;;;;-2.02;84.83;102908.25;6260279;28;20060;-81
2024/01/10 13:17:12;;;;;;;16.95;5.47;;;;;;;-2.06;83.67;102904.69;6261488;28;20049;-81
2024/01/10 13:20:13;;;;;;;15.85;5.65;;;;;;;-2.05;82.68;102901.28;6252198;28;20050;-80
2024/01/10 13:23:16;;;;;;;13.23;5.70;;;;;;;-2.10;85.26;102902.84;6260010;28;20050;-79
2024/01/10 13:26:18;;;;;;;14.32;5.38;;;;;;;-2.07;84.04;102913.25;6276041;28;20153;-79
2024/01/10 13:29:19;;;;;;;15.13;4.30;;;;;;;-2.02;84.15;102909.97;6276690;28;20144;-79
2024/01/10 13:32:20;;;;;;;12.18;5.05;;;;;;;-1.94;81.27;102901.66;6264390;28;20053;-80
2024/01/10 13:35:22;;;;;;;12.60;4.30;;;;;;;-1.90;82.49;102915.53;6251760;28;20042;-80
2024/01/10 13:38:26;;;;;;;12.82;4.85;;;;;;;-1.88;83.37;102911.28;6251414;28;20076;-80
2024/01/10 13:41:27;;;;;;;8.68;4.65;;;;;;;-1.90;83.85;102920.69;6250511;28;20041;-79
2024/01/10 13:44:28;;;;;;;15.90;4.28;;;;;;;-1.90;83.55;102918.97;6255163;28;20048;-76
2024/01/10 13:47:30;;;;;;;14.75;4.93;;;;;;;-1.89;82.52;102918.16;6251365;28;20052;-77
2024/01/10 13:50:31;;;;;;;11.10;4.00;;;;;;;-1.90;83.75;102920.69;6258747;28;20425;-77
2024/01/10 13:53:34;;;;;;;16.45;5.40;;;;;;;-1.84;82.41;102919.16;6260737;28;20057;-77
2024/01/10 13:56:35;;;;;;;14.93;4.82;;;;;;;-1.82;83.02;102917.53;6263541;28;20358;-77